Time;durP1;ratioP1;P1;durP2;ratioP2;P2;SDS_P1;SDS_P2;PMS_P1;PMS_P2;Temp;Humidity;BMP_temperature;BMP_pressure;BME280_temperature;BME280_humidity;BME280_pressure;Samples;Min_cycle;Max_cycle;Signal;HPM_P1;HPM_P2
2024/04/13 00:00:21;;;;;;;15.23;7.23;;;16.90;99.90;;;;;;7288079;19;20192;-85
2024/04/13 00:02:47;;;;;;;12.70;6.33;;;17.00;99.90;;;;;;7289073;19;20203;-85
2024/04/13 00:05:12;;;;;;;13.93;6.60;;;17.00;99.90;;;;;;7287827;19;20196;-84
2024/04/13 00:07:38;;;;;;;17.07;6.97;;;17.00;99.90;;;;;;7287951;19;20205;-82
2024/04/13 00:10:05;;;;;;;14.53;6.77;;;17.00;99.90;;;;;;7308084;19;20184;-81
2024/04/13 00:12:31;;;;;;;16.13;6.50;;;17.00;99.90;;;;;;7305088;19;20550;-85
2024/04/13 00:14:57;;;;;;;13.97;6.90;;;17.00;99.90;;;;;;7287972;19;20189;-85
2024/04/13 00:17:23;;;;;;;13.77;7.23;;;16.90;99.90;;;;;;7289705;19;20208;-85
2024/04/13 00:19:52;;;;;;;14.40;7.00;;;16.90;99.90;;;;;;7286706;19;20535;-85
2024/04/13 00:22:18;;;;;;;16.77;7.17;;;16.90;99.90;;;;;;7288326;19;20196;-85
2024/04/13 00:24:47;;;;;;;15.17;6.70;;;16.80;99.90;;;;;;7287586;19;20255;-85
2024/04/13 00:27:13;;;;;;;15.97;6.83;;;16.80;99.90;;;;;;7287242;19;20188;-85
2024/04/13 00:29:39;;;;;;;15.00;6.50;;;16.70;99.90;;;;;;7288989;19;20216;-85
2024/04/13 00:32:05;;;;;;;14.20;6.97;;;16.70;99.90;;;;;;7300674;19;20898;-83
2024/04/13 00:34:34;;;;;;;15.47;6.87;;;16.70;99.90;;;;;;7311205;19;20200;-85
2024/04/13 00:37:06;;;;;;;17.50;7.37;;;16.80;99.90;;;;;;7289363;19;20306;-83
2024/04/13 00:39:32;;;;;;;16.50;6.70;;;16.80;99.90;;;;;;7288478;19;20209;-84
2024/04/13 00:41:58;;;;;;;14.23;7.10;;;16.90;99.90;;;;;;7288673;19;20189;-84
2024/04/13 00:44:25;;;;;;;17.27;7.10;;;16.80;99.90;;;;;;7289544;19;20218;-85
2024/04/13 00:46:50;;;;;;;14.40;7.23;;;16.80;99.90;;;;;;7286771;19;20206;-85
2024/04/13 00:49:19;;;;;;;16.63;7.70;;;16.80;99.90;;;;;;7286815;19;20191;-85
2024/04/13 00:51:52;;;;;;;18.03;7.80;;;16.80;99.90;;;;;;7288514;19;20196;-85
2024/04/13 00:54:22;;;;;;;20.03;7.60;;;16.70;99.90;;;;;;7287550;19;20252;-84
2024/04/13 00:56:50;;;;;;;16.33;8.10;;;16.70;99.90;;;;;;7288505;19;20186;-84
2024/04/13 00:59:17;;;;;;;15.43;7.30;;;16.60;99.90;;;;;;7285580;19;20185;-84
2024/04/13 01:01:46;;;;;;;19.13;8.30;;;16.60;99.90;;;;;;7285875;19;20180;-85
2024/04/13 01:04:14;;;;;;;18.10;7.67;;;16.70;99.90;;;;;;7285828;19;20181;-84
2024/04/13 01:06:40;;;;;;;14.30;7.50;;;16.70;99.90;;;;;;7285276;19;20188;-84
2024/04/13 01:09:06;;;;;;;15.80;7.77;;;16.70;99.90;;;;;;7291701;19;20663;-83
2024/04/13 01:11:34;;;;;;;15.10;7.97;;;16.60;99.90;;;;;;7310079;19;20188;-84
2024/04/13 01:14:01;;;;;;;14.57;7.33;;;16.60;99.90;;;;;;7286488;19;20368;-84
2024/04/13 01:16:28;;;;;;;15.90;8.13;;;16.60;99.90;;;;;;7287119;19;20264;-85
2024/04/13 01:18:54;;;;;;;19.40;8.47;;;16.40;99.90;;;;;;7287446;19;20212;-85
2024/04/13 01:21:20;;;;;;;19.63;8.83;;;16.40;99.90;;;;;;7293851;19;20255;-83
2024/04/13 01:23:49;;;;;;;18.67;7.33;;;16.40;99.90;;;;;;7289430;19;20218;-85
2024/04/13 01:26:16;;;;;;;18.37;8.50;;;16.40;99.90;;;;;;7286602;19;20243;-85
2024/04/13 01:28:42;;;;;;;15.40;7.80;;;16.40;99.90;;;;;;7286877;19;20183;-85
2024/04/13 01:31:08;;;;;;;15.67;7.93;;;16.40;99.90;;;;;;7285583;19;20190;-85
2024/04/13 01:33:34;;;;;;;15.33;7.60;;;16.30;99.90;;;;;;7305778;19;20188;-80
2024/04/13 01:36:00;;;;;;;18.83;8.40;;;16.30;99.90;;;;;;7295412;19;20185;-85
2024/04/13 01:38:27;;;;;;;17.97;8.13;;;16.30;99.90;;;;;;7285340;19;20279;-85
2024/04/13 01:40:53;;;;;;;14.37;8.00;;;16.40;99.90;;;;;;7286502;19;20185;-85
2024/04/13 01:43:19;;;;;;;12.73;7.97;;;16.40;99.90;;;;;;7286313;19;20201;-85
2024/04/13 01:45:46;;;;;;;17.60;7.63;;;16.50;99.90;;;;;;7286431;19;20559;-85
2024/04/13 01:48:11;;;;;;;16.67;8.03;;;16.50;99.90;;;;;;7287023;19;20681;-85
2024/04/13 01:50:37;;;;;;;12.27;7.47;;;16.50;99.90;;;;;;7286292;19;20206;-84
2024/04/13 01:53:03;;;;;;;14.63;7.57;;;16.50;99.90;;;;;;7307140;19;20192;-85
2024/04/13 01:55:29;;;;;;;16.33;8.07;;;16.50;99.90;;;;;;7286647;19;20592;-85
2024/04/13 01:57:55;;;;;;;15.20;7.87;;;16.50;99.90;;;;;;7285548;19;20193;-86
2024/04/13 02:00:21;;;;;;;16.33;7.83;;;16.50;99.90;;;;;;7285035;19;20658;-86
2024/04/13 02:02:47;;;;;;;14.47;7.53;;;16.60;99.90;;;;;;7287304;19;20200;-85
2024/04/13 02:05:13;;;;;;;16.17;7.73;;;16.50;99.90;;;;;;7286705;19;20200;-85
2024/04/13 02:07:39;;;;;;;15.87;7.30;;;16.50;99.90;;;;;;7284784;19;20179;-85
2024/04/13 02:10:06;;;;;;;16.30;7.40;;;16.40;99.90;;;;;;7305336;19;20208;-80
2024/04/13 02:12:32;;;;;;;13.57;7.50;;;16.50;99.90;;;;;;7307391;19;20252;-85
2024/04/13 02:14:58;;;;;;;15.17;7.70;;;16.50;99.90;;;;;;7284692;19;20243;-85
2024/04/13 02:17:24;;;;;;;14.87;7.20;;;16.40;99.90;;;;;;7284644;19;20209;-85
2024/04/13 02:19:49;;;;;;;13.67;7.53;;;16.40;99.90;;;;;;7283960;19;20667;-85
2024/04/13 02:22:15;;;;;;;16.47;7.87;;;16.30;99.90;;;;;;7285050;19;20528;-85
2024/04/13 02:24:43;;;;;;;15.87;7.07;;;16.30;99.90;;;;;;7285014;19;20181;-85
2024/04/13 02:27:10;;;;;;;18.87;7.20;;;16.30;99.90;;;;;;7284972;19;20188;-85
2024/04/13 02:29:38;;;;;;;14.13;7.10;;;16.20;99.90;;;;;;7286508;19;20291;-85
2024/04/13 02:32:06;;;;;;;14.93;7.57;;;16.10;99.90;;;;;;7306991;19;20189;-85
2024/04/13 02:34:33;;;;;;;14.33;7.33;;;16.20;99.90;;;;;;7285079;19;20196;-85
2024/04/13 02:36:59;;;;;;;14.50;7.40;;;16.20;99.90;;;;;;7283847;19;20193;-85
2024/04/13 02:39:24;;;;;;;13.13;7.00;;;16.30;99.90;;;;;;7284144;19;20284;-85
2024/04/13 02:41:50;;;;;;;15.10;7.60;;;16.30;99.90;;;;;;7281712;19;20202;-85
2024/04/13 02:44:16;;;;;;;17.13;7.37;;;16.30;99.90;;;;;;7283407;19;20553;-85
2024/04/13 02:46:42;;;;;;;14.17;7.03;;;16.40;99.90;;;;;;7293558;19;20203;-84
2024/04/13 02:49:08;;;;;;;14.97;7.10;;;16.30;99.90;;;;;;7293655;19;20192;-84
2024/04/13 02:51:34;;;;;;;14.50;7.23;;;16.30;99.90;;;;;;7312942;19;20184;-85
2024/04/13 02:54:01;;;;;;;13.67;7.00;;;16.20;99.90;;;;;;7291046;19;20703;-85
2024/04/13 02:56:28;;;;;;;14.43;7.50;;;16.20;99.90;;;;;;7290308;19;20619;-85
2024/04/13 02:58:54;;;;;;;13.93;7.00;;;16.30;99.90;;;;;;7290617;19;20190;-85
2024/04/13 03:01:19;;;;;;;16.13;7.70;;;16.20;99.90;;;;;;7286676;19;20655;-85
2024/04/13 03:03:46;;;;;;;15.17;7.43;;;16.20;99.90;;;;;;7283280;19;20198;-86
2024/04/13 03:06:14;;;;;;;16.63;7.53;;;16.20;99.90;;;;;;7283094;19;20289;-83
2024/04/13 03:08:40;;;;;;;15.87;7.40;;;16.10;99.90;;;;;;7284052;19;20192;-83
2024/04/13 03:11:11;;;;;;;15.07;7.23;;;16.00;99.90;;;;;;7292143;19;20192;-83
2024/04/13 03:13:37;;;;;;;14.23;7.13;;;16.10;99.90;;;;;;7289589;19;20228;-82
2024/04/13 03:16:04;;;;;;;14.57;7.30;;;16.10;99.90;;;;;;7311864;19;20184;-86
2024/04/13 03:18:31;;;;;;;15.47;7.93;;;16.20;99.90;;;;;;7289141;19;20208;-86
2024/04/13 03:20:57;;;;;;;14.53;7.13;;;16.10;99.90;;;;;;7290959;19;20640;-86
2024/04/13 03:23:23;;;;;;;12.77;7.60;;;16.10;99.90;;;;;;7290742;19;20204;-86
2024/04/13 03:25:50;;;;;;;14.90;7.97;;;16.10;99.90;;;;;;7290856;19;20255;-86
2024/04/13 03:28:19;;;;;;;14.33;6.77;;;16.10;99.90;;;;;;7290321;19;20593;-83
2024/04/13 03:30:45;;;;;;;14.67;6.67;;;16.10;99.90;;;;;;7289586;19;20196;-83
2024/04/13 03:33:12;;;;;;;14.53;6.47;;;16.10;99.90;;;;;;7291188;19;20273;-83
2024/04/13 03:35:38;;;;;;;12.97;6.43;;;16.10;99.90;;;;;;7290182;19;20239;-84
2024/04/13 03:38:06;;;;;;;16.10;7.10;;;16.00;99.90;;;;;;7312017;19;20209;-82
2024/04/13 03:40:36;;;;;;;17.13;7.17;;;16.10;99.90;;;;;;7290697;19;20217;-86
2024/04/13 03:43:05;;;;;;;13.30;7.10;;;16.00;99.90;;;;;;7290405;19;20532;-85
2024/04/13 03:45:31;;;;;;;18.37;7.37;;;16.00;99.90;;;;;;7291426;19;20209;-85
2024/04/13 03:47:57;;;;;;;13.33;6.80;;;16.00;99.90;;;;;;7289582;19;20184;-86
2024/04/13 03:50:23;;;;;;;14.00;6.67;;;16.00;99.90;;;;;;7289856;19;20191;-86
2024/04/13 03:52:49;;;;;;;15.17;7.10;;;16.00;99.90;;;;;;7290009;19;20591;-86
2024/04/13 03:55:15;;;;;;;13.83;6.90;;;16.00;99.90;;;;;;7289864;19;20185;-85
2024/04/13 03:57:40;;;;;;;14.73;6.90;;;16.00;99.90;;;;;;7289207;19;20189;-83
2024/04/13 04:00:07;;;;;;;12.67;6.30;;;16.00;99.90;;;;;;7294507;19;20762;-83
2024/04/13 04:02:36;;;;;;;15.53;6.63;;;15.90;99.90;;;;;;7296024;19;20192;-84
2024/04/13 04:05:03;;;;;;;11.83;5.77;;;15.80;99.90;;;;;;7311615;19;20204;-83
2024/04/13 04:07:29;;;;;;;11.63;5.70;;;15.70;99.90;;;;;;7290582;19;20222;-86
2024/04/13 04:09:55;;;;;;;10.60;5.57;;;15.60;99.90;;;;;;7287947;19;20196;-86
2024/04/13 04:12:21;;;;;;;12.30;5.90;;;15.50;99.90;;;;;;7289318;19;20195;-85
2024/04/13 04:14:46;;;;;;;11.70;6.17;;;15.50;99.90;;;;;;7288626;19;20702;-85
2024/04/13 04:17:12;;;;;;;12.73;6.60;;;15.40;99.90;;;;;;7292904;19;20199;-85
2024/04/13 04:19:38;;;;;;;13.33;6.80;;;15.30;99.90;;;;;;7289852;19;20191;-85
2024/04/13 04:22:04;;;;;;;14.70;7.27;;;15.30;99.90;;;;;;7309611;19;20184;-82
2024/04/13 04:24:30;;;;;;;14.47;7.30;;;15.20;99.90;;;;;;7290121;19;20293;-83
2024/04/13 04:26:56;;;;;;;14.93;7.50;;;15.20;99.90;;;;;;7289272;19;20249;-83
2024/04/13 04:29:21;;;;;;;14.60;7.90;;;15.20;99.90;;;;;;7288270;19;20188;-83
2024/04/13 04:31:47;;;;;;;12.40;7.17;;;15.30;99.90;;;;;;7290445;19;20295;-85
2024/04/13 04:34:13;;;;;;;12.27;6.90;;;15.30;99.90;;;;;;7288579;19;20196;-85
2024/04/13 04:36:41;;;;;;;14.43;7.40;;;15.20;99.90;;;;;;7288090;19;20650;-85
2024/04/13 04:39:07;;;;;;;15.40;7.43;;;15.20;99.90;;;;;;7289328;19;20283;-85
2024/04/13 04:41:33;;;;;;;13.83;7.17;;;15.20;99.90;;;;;;7309864;19;20210;-85
2024/04/13 04:43:59;;;;;;;11.93;7.23;;;15.20;99.90;;;;;;7288212;19;20194;-85
2024/04/13 04:46:24;;;;;;;13.13;7.33;;;15.20;99.90;;;;;;7288611;19;20613;-84
2024/04/13 04:48:50;;;;;;;14.77;8.03;;;15.20;99.90;;;;;;7284725;19;20195;-85
2024/04/13 04:51:19;;;;;;;18.80;7.97;;;15.30;99.90;;;;;;7288241;19;20677;-85
2024/04/13 04:53:45;;;;;;;15.23;7.87;;;15.40;99.90;;;;;;7287906;19;20530;-85
2024/04/13 04:56:12;;;;;;;13.43;7.63;;;15.50;99.90;;;;;;7286012;19;20180;-85
2024/04/13 04:58:38;;;;;;;17.37;8.33;;;15.50;99.90;;;;;;7288863;19;20197;-84
2024/04/13 05:01:04;;;;;;;15.23;8.40;;;15.50;99.90;;;;;;7308638;19;20181;-85
2024/04/13 05:03:30;;;;;;;12.93;7.43;;;15.60;99.90;;;;;;7287982;19;20182;-85
2024/04/13 05:05:57;;;;;;;17.73;8.40;;;15.60;99.90;;;;;;7288870;19;20189;-84
2024/04/13 05:08:23;;;;;;;18.33;8.20;;;15.60;99.90;;;;;;7286694;19;20692;-84
2024/04/13 05:10:48;;;;;;;14.80;7.23;;;15.50;99.90;;;;;;7285712;19;20212;-84
2024/04/13 05:13:15;;;;;;;18.80;7.43;;;15.50;99.90;;;;;;7286281;19;20555;-86
2024/04/13 05:15:41;;;;;;;13.67;7.57;;;15.60;99.90;;;;;;7286805;19;20191;-85
2024/04/13 05:18:08;;;;;;;15.87;7.60;;;15.70;99.90;;;;;;7285175;19;20178;-84
2024/04/13 05:20:36;;;;;;;13.27;7.07;;;15.70;99.90;;;;;;7306639;19;20191;-86
2024/04/13 05:23:05;;;;;;;13.70;7.50;;;15.80;99.90;;;;;;7287434;19;20213;-85
2024/04/13 05:25:31;;;;;;;15.67;7.13;;;15.70;99.90;;;;;;7287447;19;20251;-85
2024/04/13 05:27:57;;;;;;;15.40;7.33;;;15.80;99.90;;;;;;7285544;19;20212;-84
2024/04/13 05:30:24;;;;;;;12.47;6.80;;;15.90;99.90;;;;;;7284402;19;20184;-85
2024/04/13 05:32:50;;;;;;;13.20;6.63;;;16.00;99.90;;;;;;7287049;19;20187;-84
2024/04/13 05:35:18;;;;;;;13.57;6.53;;;16.10;99.90;;;;;;7285383;19;20196;-85
2024/04/13 05:37:47;;;;;;;14.93;6.70;;;16.30;99.90;;;;;;7287009;19;20199;-85
2024/04/13 05:40:13;;;;;;;12.17;6.80;;;16.40;99.90;;;;;;7286060;19;20220;-84
2024/04/13 05:42:40;;;;;;;13.67;6.23;;;16.50;99.90;;;;;;7286458;19;20181;-84
2024/04/13 05:45:06;;;;;;;12.63;6.07;;;16.60;99.90;;;;;;7301201;19;20197;-82
2024/04/13 05:47:32;;;;;;;13.03;6.37;;;16.60;99.90;;;;;;7306033;19;20205;-84
2024/04/13 05:50:02;;;;;;;15.23;6.23;;;16.70;99.90;;;;;;7286099;19;20710;-84
2024/04/13 05:52:28;;;;;;;15.20;6.23;;;16.80;99.90;;;;;;7284457;19;20194;-84
2024/04/13 05:54:54;;;;;;;11.53;5.77;;;16.90;99.90;;;;;;7286097;19;20210;-84
2024/04/13 05:57:19;;;;;;;15.63;5.67;;;17.00;99.90;;;;;;7286177;19;20636;-84
2024/04/13 05:59:45;;;;;;;13.00;6.57;;;17.10;99.90;;;;;;7285291;19;20265;-85
2024/04/13 06:02:11;;;;;;;13.43;6.43;;;17.20;99.90;;;;;;7286582;19;20185;-84
2024/04/13 06:04:36;;;;;;;15.73;6.60;;;17.30;99.90;;;;;;7289294;19;20211;-85
2024/04/13 06:07:02;;;;;;;14.23;6.17;;;17.50;99.90;;;;;;7306644;19;20184;-86
2024/04/13 06:09:28;;;;;;;14.60;6.23;;;17.70;99.90;;;;;;7285146;19;20256;-84
2024/04/13 06:11:54;;;;;;;12.30;5.33;;;17.90;99.90;;;;;;7285909;19;20546;-84
2024/04/13 06:14:20;;;;;;;12.23;5.60;;;18.20;99.90;;;;;;7285476;19;20220;-85
2024/04/13 06:16:46;;;;;;;13.73;5.50;;;18.30;99.90;;;;;;7284036;19;20205;-82
2024/04/13 06:19:13;;;;;;;12.57;6.03;;;18.30;99.90;;;;;;7280762;19;20184;-84
2024/04/13 06:21:41;;;;;;;14.07;6.37;;;18.40;99.90;;;;;;7285056;19;20193;-86
2024/04/13 06:24:07;;;;;;;12.83;5.47;;;18.50;99.90;;;;;;7284764;19;20571;-85
2024/04/13 06:26:34;;;;;;;13.90;5.80;;;18.40;99.90;;;;;;7307141;19;20189;-86
2024/04/13 06:29:00;;;;;;;14.17;5.80;;;18.50;99.90;;;;;;7284941;19;20223;-87
2024/04/13 06:31:26;;;;;;;12.07;5.47;;;18.70;99.90;;;;;;7285248;19;20680;-86
2024/04/13 06:33:52;;;;;;;23.90;8.07;;;18.90;99.90;;;;;;7284186;19;20554;-87
2024/04/13 06:36:17;;;;;;;12.00;5.73;;;19.10;99.90;;;;;;7285112;19;20248;-85
2024/04/13 06:38:44;;;;;;;20.03;6.90;;;19.40;99.90;;;;;;7284359;19;20209;-85
2024/04/13 06:41:10;;;;;;;11.70;5.80;;;19.30;99.90;;;;;;7285128;19;20192;-85
2024/04/13 06:43:35;;;;;;;16.47;6.10;;;19.40;99.90;;;;;;7299920;19;20209;-86
2024/04/13 06:46:01;;;;;;;12.13;5.70;;;19.50;99.90;;;;;;7301755;19;20177;-87
2024/04/13 06:48:28;;;;;;;10.33;5.00;;;19.90;99.90;;;;;;7290584;19;20232;-87
2024/04/13 06:50:54;;;;;;;13.03;5.00;;;20.00;99.90;;;;;;7291421;19;20556;-87
2024/04/13 06:53:20;;;;;;;11.30;5.33;;;20.30;99.90;;;;;;7292411;19;20670;-86
2024/04/13 06:55:46;;;;;;;10.13;5.57;;;20.40;99.90;;;;;;7290874;19;20194;-87
2024/04/13 06:58:11;;;;;;;12.73;5.50;;;20.60;99.90;;;;;;7291305;19;20286;-88
2024/04/13 07:00:37;;;;;;;11.70;5.00;;;20.80;99.90;;;;;;7289916;19;20207;-86
2024/04/13 07:03:03;;;;;;;10.27;4.50;;;21.10;99.90;;;;;;7312306;19;20184;-87
2024/04/13 07:05:29;;;;;;;12.20;4.40;;;21.50;99.90;;;;;;7291108;19;20548;-87
2024/04/13 07:07:55;;;;;;;9.73;3.97;;;22.20;99.90;;;;;;7291803;19;20221;-85
2024/04/13 07:10:21;;;;;;;10.10;4.40;;;23.20;99.90;;;;;;7290774;19;20189;-87
2024/04/13 07:12:47;;;;;;;9.50;4.67;;;23.10;99.90;;;;;;7295346;19;20671;-87
2024/04/13 07:15:13;;;;;;;9.60;4.20;;;23.10;99.90;;;;;;7290182;19;20638;-86
2024/04/13 07:17:39;;;;;;;10.83;4.27;;;22.70;99.90;;;;;;7291847;19;20193;-86
2024/04/13 07:20:07;;;;;;;8.00;4.17;;;23.50;99.90;;;;;;7312097;19;20229;-86
2024/04/13 07:22:33;;;;;;;7.63;3.80;;;24.00;99.90;;;;;;7290087;19;20206;-87
2024/04/13 07:24:59;;;;;;;11.17;4.33;;;24.10;99.90;;;;;;7289744;19;20192;-86
2024/04/13 07:27:24;;;;;;;14.90;5.00;;;24.10;99.90;;;;;;7290940;19;20949;-86
2024/04/13 07:29:51;;;;;;;12.48;4.50;;;24.40;99.90;;;;;;7290815;19;20217;-87
2024/04/13 07:32:17;;;;;;;10.18;4.65;;;25.20;99.90;;;;;;7290828;19;20200;-87
2024/04/13 07:34:42;;;;;;;9.25;4.20;;;25.80;99.90;;;;;;7290361;19;20189;-87
2024/04/13 07:37:08;;;;;;;10.65;4.47;;;26.10;99.90;;;;;;7290574;19;20189;-86
2024/04/13 07:39:34;;;;;;;13.52;4.80;;;26.00;99.90;;;;;;7312120;19;20202;-87
2024/04/13 07:42:01;;;;;;;12.18;4.70;;;26.10;99.90;;;;;;7289242;19;20181;-87
2024/04/13 07:44:27;;;;;;;12.63;5.10;;;25.90;99.90;;;;;;7288177;19;20193;-86
2024/04/13 07:46:53;;;;;;;11.40;4.60;;;26.00;99.90;;;;;;7287692;19;20192;-86
2024/04/13 07:49:20;;;;;;;11.27;5.28;;;26.20;99.90;;;;;;7290449;19;20193;-88
2024/04/13 07:51:47;;;;;;;11.15;4.97;;;26.70;99.90;;;;;;7290351;19;20589;-86
2024/04/13 07:54:14;;;;;;;12.95;5.00;;;27.60;99.90;;;;;;7291572;19;20209;-83
2024/04/13 07:56:39;;;;;;;11.15;4.72;;;29.30;99.90;;;;;;7285384;19;20204;-85
2024/04/13 07:59:05;;;;;;;8.95;4.20;;;29.50;99.90;;;;;;7307532;19;20207;-80
2024/04/13 08:01:31;;;;;;;9.75;4.47;;;29.00;99.90;;;;;;7295617;19;20212;-84
2024/04/13 08:03:57;;;;;;;11.85;5.00;;;29.00;99.90;;;;;;7288336;19;20203;-84
2024/04/13 08:06:25;;;;;;;10.48;4.93;;;28.90;99.90;;;;;;7288129;19;20177;-83
2024/04/13 08:08:50;;;;;;;11.70;5.05;;;28.60;99.90;;;;;;7287614;19;20197;-84
2024/04/13 08:11:16;;;;;;;11.45;5.50;;;28.90;99.90;;;;;;7288186;19;20199;-82
2024/04/13 08:13:42;;;;;;;12.48;5.68;;;28.80;99.90;;;;;;7286827;19;20188;-84
2024/04/13 08:16:08;;;;;;;14.50;7.07;;;29.10;99.90;;;;;;7287873;19;20185;-83
2024/04/13 08:18:34;;;;;;;15.10;7.43;;;29.10;99.90;;;;;;7309699;19;20193;-84
2024/04/13 08:21:00;;;;;;;16.98;7.00;;;29.50;99.90;;;;;;7286827;19;20199;-84
2024/04/13 08:23:25;;;;;;;16.60;7.05;;;30.10;99.90;;;;;;7286508;19;20205;-80
2024/04/13 08:25:51;;;;;;;12.88;5.57;;;30.50;99.90;;;;;;7287691;19;20196;-79
2024/04/13 08:28:17;;;;;;;10.85;5.57;;;30.80;99.90;;;;;;7287194;19;20189;-78
2024/04/13 08:30:43;;;;;;;11.52;5.60;;;29.90;99.90;;;;;;7288325;19;20195;-78
2024/04/13 08:33:08;;;;;;;10.38;4.85;;;29.50;99.90;;;;;;7287474;19;20230;-84
2024/04/13 08:35:34;;;;;;;11.50;4.38;;;29.90;99.90;;;;;;7310715;19;20185;-83
2024/04/13 08:38:00;;;;;;;10.55;4.68;;;30.00;99.90;;;;;;7286505;19;20193;-83
2024/04/13 08:40:26;;;;;;;9.18;3.97;;;29.40;99.90;;;;;;7287892;19;20198;-83
2024/04/13 08:42:57;;;;;;;11.00;4.15;;;29.90;99.90;;;;;;7286903;19;20189;-83
2024/04/13 08:45:25;;;;;;;9.60;4.18;;;29.90;99.90;;;;;;7287697;19;20265;-83
2024/04/13 08:47:53;;;;;;;10.23;3.90;;;30.50;99.90;;;;;;7286412;19;20177;-83
2024/04/13 08:50:19;;;;;;;9.55;3.70;;;30.40;99.90;;;;;;7287812;19;20189;-83
2024/04/13 08:52:46;;;;;;;10.35;4.07;;;29.90;99.90;;;;;;7288068;19;20268;-82
2024/04/13 08:55:12;;;;;;;10.70;4.18;;;29.80;99.90;;;;;;7287181;19;20212;-83
2024/04/13 08:57:40;;;;;;;8.98;3.97;;;29.90;99.90;;;;;;7287922;19;20184;-82
2024/04/13 09:00:15;;;;;;;8.85;3.75;;;30.50;99.90;;;;;;7298855;19;20195;-82
2024/04/13 09:02:44;;;;;;;8.70;4.15;;;31.70;99.90;;;;;;7286497;19;20231;-83
2024/04/13 09:05:15;;;;;;;7.82;3.47;;;31.60;99.90;;;;;;7286794;19;20205;-83
2024/04/13 09:07:44;;;;;;;9.98;3.60;;;32.00;99.90;;;;;;7286527;19;20184;-84
2024/04/13 09:10:11;;;;;;;9.20;3.60;;;32.80;99.90;;;;;;7285915;19;20644;-84
2024/04/13 09:12:37;;;;;;;7.45;3.30;;;33.50;99.20;;;;;;7289146;19;20188;-83
2024/04/13 09:15:04;;;;;;;9.73;3.88;;;33.90;98.30;;;;;;7307236;19;20204;-84
2024/04/13 09:17:31;;;;;;;15.45;4.80;;;33.30;96.90;;;;;;7287219;19;20180;-83
2024/04/13 09:20:06;;;;;;;13.52;4.30;;;31.90;99.20;;;;;;7285478;19;20186;-84
2024/04/13 09:22:33;;;;;;;9.20;3.60;;;32.50;98.50;;;;;;7286480;19;20189;-84
2024/04/13 09:24:59;;;;;;;9.88;3.60;;;32.70;97.70;;;;;;7285398;19;20722;-83
2024/04/13 09:27:28;;;;;;;13.73;3.55;;;32.40;98.50;;;;;;7284638;19;20209;-83
2024/04/13 09:30:05;;;;;;;7.88;3.40;;;31.60;98.30;;;;;;7285953;19;20192;-84
2024/04/13 09:32:31;;;;;;;8.63;3.50;;;31.60;99.20;;;;;;7285861;19;20232;-83
2024/04/13 09:35:13;;;;;;;9.40;4.25;;;31.00;98.70;;;;;;7286054;19;20251;-84
2024/04/13 09:37:39;;;;;;;9.70;3.90;;;30.90;99.40;;;;;;7265508;19;20263;-84
2024/04/13 09:40:07;;;;;;;10.27;3.58;;;31.30;99.90;;;;;;7306517;19;20651;-80
2024/04/13 09:42:33;;;;;;;8.25;3.30;;;31.60;99.90;;;;;;7307855;19;20196;-83
2024/04/13 09:45:07;;;;;;;8.63;3.50;;;32.40;98.70;;;;;;7286125;19;20204;-83
2024/04/13 09:47:33;;;;;;;10.20;3.95;;;32.50;97.40;;;;;;7285557;19;20196;-83
2024/04/13 09:49:59;;;;;;;11.90;3.88;;;32.40;98.10;;;;;;7284771;19;20699;-83
2024/04/13 09:52:28;;;;;;;9.82;3.95;;;31.20;99.40;;;;;;7285428;19;20193;-83
2024/04/13 09:54:55;;;;;;;10.07;3.95;;;31.60;99.10;;;;;;7284461;19;21698;-80
2024/04/13 09:57:22;;;;;;;10.45;3.45;;;31.00;98.10;;;;;;7285511;19;20560;-79
2024/04/13 09:59:50;;;;;;;8.07;3.22;;;31.30;98.90;;;;;;7285680;19;20184;-80
2024/04/13 10:02:17;;;;;;;8.57;3.42;;;31.10;98.50;;;;;;7283502;19;20188;-80
2024/04/13 10:04:43;;;;;;;10.57;3.88;;;32.00;97.90;;;;;;7283868;19;20192;-81
2024/04/13 10:07:10;;;;;;;8.90;3.10;;;32.10;98.90;;;;;;7284101;19;20197;-79
2024/04/13 10:09:39;;;;;;;8.45;3.40;;;32.90;97.60;;;;;;7296638;19;20585;-80
2024/04/13 10:12:09;;;;;;;8.02;3.50;;;32.70;95.70;;;;;;7302262;19;20636;-81
2024/04/13 10:14:41;;;;;;;11.25;3.40;;;32.10;96.70;;;;;;7279193;19;20668;-80
2024/04/13 10:17:09;;;;;;;8.57;3.13;;;32.30;96.10;;;;;;7267981;19;20211;-80
2024/04/13 10:19:35;;;;;;;7.43;3.20;;;34.00;95.60;;;;;;7304449;19;20196;-80
2024/04/13 10:22:04;;;;;;;8.90;3.03;;;33.60;94.00;;;;;;7290535;19;20214;-81
2024/04/13 10:24:30;;;;;;;7.68;2.90;;;32.90;94.90;;;;;;7291352;19;20248;-80
2024/04/13 10:27:09;;;;;;;6.80;2.95;;;33.00;94.60;;;;;;7290733;19;20644;-81
2024/04/13 10:29:40;;;;;;;8.35;2.90;;;33.10;94.60;;;;;;7290767;19;20272;-80
2024/04/13 10:32:16;;;;;;;9.30;2.90;;;33.60;94.40;;;;;;7283077;19;20229;-80
2024/04/13 10:34:42;;;;;;;8.43;2.83;;;33.60;93.00;;;;;;7291428;19;20192;-80
2024/04/13 10:37:26;;;;;;;7.88;2.72;;;33.20;93.50;;;;;;7290869;19;20189;-80
2024/04/13 10:39:54;;;;;;;10.98;2.80;;;32.60;93.50;;;;;;7289825;19;20200;-80
2024/04/13 10:42:20;;;;;;;8.65;3.00;;;33.00;94.40;;;;;;7290833;19;20200;-81
2024/04/13 10:44:46;;;;;;;8.00;2.80;;;32.20;94.50;;;;;;7290744;19;20504;-80
2024/04/13 10:47:12;;;;;;;9.25;2.88;;;31.50;94.10;;;;;;7290978;19;20196;-80
2024/04/13 10:49:42;;;;;;;4.45;2.60;;;30.70;95.50;;;;;;7289199;19;20192;-79
2024/04/13 10:52:10;;;;;;;9.00;2.78;;;30.90;95.60;;;;;;7289055;19;20646;-80
2024/04/13 10:54:36;;;;;;;8.02;2.80;;;30.90;96.30;;;;;;7304621;19;20200;-78
2024/04/13 10:57:05;;;;;;;12.13;3.42;;;31.10;95.70;;;;;;7304404;19;20196;-80
2024/04/13 10:59:30;;;;;;;5.40;2.60;;;30.50;95.90;;;;;;7289591;19;20294;-80
2024/04/13 11:01:59;;;;;;;8.98;2.70;;;30.30;96.80;;;;;;7291039;19;20192;-80
2024/04/13 11:04:26;;;;;;;8.57;2.80;;;30.40;97.40;;;;;;7291152;19;20192;-80
2024/04/13 11:06:52;;;;;;;6.80;2.53;;;30.20;96.50;;;;;;7289995;19;20201;-80
2024/04/13 11:09:18;;;;;;;8.45;2.88;;;30.60;97.60;;;;;;7290475;19;20204;-80
2024/04/13 11:11:44;;;;;;;7.57;2.60;;;30.20;96.80;;;;;;7288774;19;20197;-80
2024/04/13 11:14:10;;;;;;;11.38;2.90;;;30.00;97.80;;;;;;7287542;19;20609;-80
2024/04/13 11:16:41;;;;;;;7.07;2.30;;;30.00;98.00;;;;;;7295511;19;20189;-80
2024/04/13 11:19:06;;;;;;;5.82;2.15;;;31.70;97.30;;;;;;7299633;19;20185;-79
2024/04/13 11:21:35;;;;;;;8.25;2.83;;;31.70;95.40;;;;;;7309089;19;20204;-81
2024/04/13 11:24:00;;;;;;;8.45;2.53;;;31.70;95.10;;;;;;7289151;19;20205;-80
2024/04/13 11:26:29;;;;;;;5.88;2.13;;;31.40;96.20;;;;;;7288002;19;20603;-81
2024/04/13 11:28:55;;;;;;;6.60;2.30;;;32.10;95.20;;;;;;7288933;19;20193;-81
2024/04/13 11:31:20;;;;;;;6.97;2.17;;;32.20;94.30;;;;;;7287656;19;20529;-80
2024/04/13 11:33:46;;;;;;;6.18;2.38;;;31.50;94.10;;;;;;7288180;19;20221;-80
2024/04/13 11:36:18;;;;;;;5.35;1.80;;;31.50;95.90;;;;;;7288887;19;20177;-80
2024/04/13 11:38:44;;;;;;;6.68;1.98;;;32.30;94.20;;;;;;7287899;19;20203;-81
2024/04/13 11:41:10;;;;;;;8.30;2.10;;;32.70;94.70;;;;;;7287673;19;20662;-81
2024/04/13 11:43:36;;;;;;;8.10;2.13;;;33.00;93.20;;;;;;7304596;19;20260;-80
2024/04/13 11:46:02;;;;;;;7.85;2.20;;;32.80;92.70;;;;;;7302965;19;20260;-80
2024/04/13 11:48:29;;;;;;;6.10;2.00;;;32.40;93.70;;;;;;7288185;19;20758;-81
2024/04/13 11:50:56;;;;;;;5.90;1.95;;;33.00;94.30;;;;;;7287426;19;20662;-81
2024/04/13 11:53:22;;;;;;;9.43;3.00;;;33.30;93.40;;;;;;7287356;19;20197;-80
2024/04/13 11:55:49;;;;;;;6.20;1.90;;;33.70;92.90;;;;;;7286627;19;20523;-80
2024/04/13 11:58:24;;;;;;;7.22;1.98;;;33.30;91.90;;;;;;7287986;19;20729;-80
2024/04/13 12:00:50;;;;;;;5.90;2.30;;;33.70;92.80;;;;;;7286867;19;20199;-80
2024/04/13 12:03:16;;;;;;;8.75;2.40;;;33.70;92.60;;;;;;7285809;19;20192;-80
2024/04/13 12:05:42;;;;;;;8.23;2.38;;;33.50;91.50;;;;;;7287333;19;20189;-80
2024/04/13 12:08:08;;;;;;;5.68;2.20;;;33.50;92.00;;;;;;7287160;19;20185;-80
2024/04/13 12:10:33;;;;;;;5.78;1.83;;;32.30;91.50;;;;;;7310963;19;20192;-80
2024/04/13 12:12:59;;;;;;;6.18;2.35;;;32.10;92.50;;;;;;7285977;19;20659;-80
2024/04/13 12:15:25;;;;;;;8.38;2.63;;;30.90;93.30;;;;;;7286926;19;20660;-79
2024/04/13 12:17:50;;;;;;;7.70;2.50;;;30.90;93.70;;;;;;7288050;19;20220;-80
2024/04/13 12:20:16;;;;;;;7.93;2.35;;;30.90;94.10;;;;;;7288748;19;20192;-80
2024/04/13 12:22:42;;;;;;;8.50;2.50;;;31.00;94.00;;;;;;7288061;19;20189;-82
2024/04/13 12:25:08;;;;;;;7.95;2.20;;;30.70;94.40;;;;;;7288577;19;20197;-79
2024/04/13 12:27:33;;;;;;;7.03;2.03;;;30.80;95.00;;;;;;7309404;19;20176;-80
2024/04/13 12:29:59;;;;;;;5.50;1.80;;;31.00;95.30;;;;;;7286768;19;20192;-80
2024/04/13 12:32:25;;;;;;;6.13;2.10;;;31.30;94.50;;;;;;7286365;19;20188;-80
2024/04/13 12:34:51;;;;;;;5.95;2.10;;;31.90;94.30;;;;;;7286179;19;20655;-80
2024/04/13 12:37:18;;;;;;;6.13;2.00;;;31.50;94.20;;;;;;7285479;19;20192;-80